Time,TemperatureF,DewpointF,PressureIn,WindDirection,WindDirectionDegrees,WindSpeedMPH,WindSpeedGustMPH,Humidity,HourlyPrecipIn,Conditions,Clouds,dailyrainin,SoftwareType,DateUTC
2013-10-04 00:06:00,30.5,27.0,30.06,NNW,340,9.0,-999.0,87,-99.99,,,0.00,weatherlink.com 1.10,2013-10-04 06:06:00,
2013-10-04 00:21:00,30.1,27.0,30.06,NNW,332,10.0,-999.0,87,-99.99,,,0.00,weatherlink.com 1.10,2013-10-04 06:21:00,
2013-10-04 00:36:00,29.9,27.0,30.08,NNW,344,11.0,-999.0,87,-99.99,,,0.00,weatherlink.com 1.10,2013-10-04 06:36:00,
2013-10-04 00:51:00,30.0,27.0,30.08,North,360,5.0,-999.0,87,-99.99,,,0.00,weatherlink.com 1.10,2013-10-04 06:51:00,
2013-10-04 01:06:00,29.8,26.0,30.09,NNW,348,9.0,-999.0,86,-99.99,,,0.00,weatherlink.com 1.10,2013-10-04 07:06:00,
2013-10-04 01:21:00,29.6,26.0,30.09,North,351,9.0,-999.0,87,-99.99,,,0.00,weatherlink.com 1.10,2013-10-04 07:21:00,
2013-10-04 01:36:00,29.5,26.0,30.10,NNW,331,14.0,-999.0,86,-99.99,,,0.00,weatherlink.com 1.10,2013-10-04 07:36:00,
2013-10-04 01:51:00,29.3,26.0,30.11,NNW,343,10.0,-999.0,86,-99.99,,,0.00,weatherlink.com 1.10,2013-10-04 07:51:00,
2013-10-04 02:06:00,29.2,26.0,30.12,NNW,331,5.0,-999.0,86,-99.99,,,0.00,weatherlink.com 1.10,2013-10-04 08:06:00,
2013-10-04 02:21:00,29.1,26.0,30.14,NNW,333,2.0,-999.0,87,-99.99,,,0.00,weatherlink.com 1.10,2013-10-04 08:21:00,
2013-10-04 02:36:00,29.1,26.0,30.14,NNW,333,2.0,-999.0,87,-99.99,,,0.00,weatherlink.com 1.10,2013-10-04 08:36:00,
2013-10-04 02:51:00,29.1,25.0,30.15,NNW,332,3.0,-999.0,86,-99.99,,,0.00,weatherlink.com 1.10,2013-10-04 08:51:00,
2013-10-04 03:06:00,29.3,26.0,30.15,NNW,331,6.0,-999.0,86,-99.99,,,0.00,weatherlink.com 1.10,2013-10-04 09:06:00,
2013-10-04 03:21:00,29.5,26.0,30.16,NNW,330,5.0,-999.0,85,-99.99,,,0.00,weatherlink.com 1.10,2013-10-04 09:21:00,
2013-10-04 03:36:00,29.5,26.0,30.16,NNW,329,4.0,-999.0,85,-99.99,,,0.00,weatherlink.com 1.10,2013-10-04 09:36:00,
2013-10-04 03:51:00,29.4,26.0,30.17,NNW,329,7.0,-999.0,85,-99.99,,,0.00,weatherlink.com 1.10,2013-10-04 09:51:00,
2013-10-04 04:06:00,29.4,26.0,30.17,NNW,329,2.0,-999.0,85,-99.99,,,0.00,weatherlink.com 1.10,2013-10-04 10:06:00,
2013-10-04 04:21:00,29.5,26.0,30.18,NNW,329,3.0,-999.0,85,-99.99,,,0.00,weatherlink.com 1.10,2013-10-04 10:21:00,
2013-10-04 04:36:00,29.4,26.0,30.19,NNW,329,3.0,-999.0,85,-99.99,,,0.00,weatherlink.com 1.10,2013-10-04 10:36:00,
2013-10-04 04:51:00,29.3,25.0,30.20,NNW,329,2.0,-999.0,85,-99.99,,,0.00,weatherlink.com 1.10,2013-10-04 10:51:00,
2013-10-04 05:06:00,29.4,26.0,30.21,NNW,329,2.0,-999.0,85,-99.99,,,0.00,weatherlink.com 1.10,2013-10-04 11:06:00,
2013-10-04 05:21:00,29.3,25.0,30.22,NNW,329,1.0,-999.0,84,-99.99,,,0.00,weatherlink.com 1.10,2013-10-04 11:21:00,
2013-10-04 05:36:00,29.3,25.0,30.23,NNW,329,2.0,-999.0,84,-99.99,,,0.00,weatherlink.com 1.10,2013-10-04 11:36:00,
2013-10-04 05:51:00,29.3,25.0,30.24,NNW,329,3.0,-999.0,85,-99.99,,,0.00,weatherlink.com 1.10,2013-10-04 11:51:00,
2013-10-04 06:06:00,29.3,25.0,30.25,NNW,329,2.0,-999.0,84,-99.99,,,0.00,weatherlink.com 1.10,2013-10-04 12:06:00,
2013-10-04 06:21:00,29.3,25.0,30.25,NNW,329,1.0,-999.0,84,-99.99,,,0.00,weatherlink.com 1.10,2013-10-04 12:21:00,
2013-10-04 06:36:00,29.2,25.0,30.26,NNW,329,2.0,-999.0,83,-99.99,,,0.00,weatherlink.com 1.10,2013-10-04 12:36:00,
2013-10-04 06:51:00,28.8,24.0,30.26,NNW,329,1.0,-999.0,83,-99.99,,,0.00,weatherlink.com 1.10,2013-10-04 12:51:00,
2013-10-04 07:06:00,28.5,24.0,30.27,NNW,329,0.0,-999.0,82,-99.99,,,0.00,weatherlink.com 1.10,2013-10-04 13:06:00,
2013-10-04 07:21:00,28.3,24.0,30.28,NNW,329,0.0,-999.0,83,-99.99,,,0.00,weatherlink.com 1.10,2013-10-04 13:21:00,
2013-10-04 07:36:00,28.2,24.0,30.29,NNW,329,0.0,-999.0,83,-99.99,,,0.00,weatherlink.com 1.10,2013-10-04 13:36:00,
2013-10-04 07:51:00,28.3,24.0,30.29,NNW,329,0.0,-999.0,82,-99.99,,,0.00,weatherlink.com 1.10,2013-10-04 13:51:00,
2013-10-04 08:06:00,28.6,24.0,30.30,NNW,329,2.0,-999.0,81,-99.99,,,0.00,weatherlink.com 1.10,2013-10-04 14:06:00,
2013-10-04 08:21:00,29.0,24.0,30.31,NNW,329,2.0,-999.0,80,-99.99,,,0.00,weatherlink.com 1.10,2013-10-04 14:21:00,
2013-10-04 08:36:00,29.4,23.0,30.32,NNW,329,1.0,-999.0,78,-99.99,,,0.00,weatherlink.com 1.10,2013-10-04 14:36:00,
2013-10-04 08:51:00,30.1,24.0,30.32,NNW,329,1.0,-999.0,78,-99.99,,,0.00,weatherlink.com 1.10,2013-10-04 14:51:00,
2013-10-04 09:06:00,30.6,24.0,30.32,NNW,329,1.0,-999.0,77,-99.99,,,0.00,weatherlink.com 1.10,2013-10-04 15:06:00,
2013-10-04 09:21:00,31.1,25.0,30.33,NNW,329,0.0,-999.0,77,-99.99,,,0.00,weatherlink.com 1.10,2013-10-04 15:21:00,
2013-10-04 09:36:00,31.4,25.0,30.34,NNW,329,2.0,-999.0,77,-99.99,,,0.00,weatherlink.com 1.10,2013-10-04 15:36:00,
2013-10-04 09:51:00,31.7,25.0,30.35,NW,321,4.0,-999.0,76,-99.99,,,0.00,weatherlink.com 1.10,2013-10-04 15:51:00,
2013-10-04 10:06:00,32.2,24.0,30.36,NW,309,5.0,-999.0,73,-99.99,,,0.01,weatherlink.com 1.10,2013-10-04 16:06:00,
2013-10-04 10:21:00,32.4,24.0,30.36,NW,310,4.0,-999.0,70,-99.99,,,0.01,weatherlink.com 1.10,2013-10-04 16:21:00,
2013-10-04 10:36:00,33.0,25.0,30.37,WNW,298,5.0,-999.0,72,-99.99,,,0.01,weatherlink.com 1.10,2013-10-04 16:36:00,
2013-10-04 10:51:00,33.5,25.0,30.37,WNW,297,0.0,-999.0,70,-99.99,,,0.01,weatherlink.com 1.10,2013-10-04 16:51:00,
2013-10-04 11:06:00,34.0,26.0,30.38,WNW,294,3.0,-999.0,71,-99.99,,,0.01,weatherlink.com 1.10,2013-10-04 17:06:00,
2013-10-04 11:21:00,34.3,24.0,30.38,SW,233,1.0,-999.0,67,-99.99,,,0.01,weatherlink.com 1.10,2013-10-04 17:21:00,
2013-10-04 11:36:00,34.4,24.0,30.39,WNW,298,2.0,-999.0,67,-99.99,,,0.01,weatherlink.com 1.10,2013-10-04 17:36:00,
2013-10-04 12:06:00,35.7,24.0,30.39,West,281,0.0,-999.0,63,-99.99,,,0.01,weatherlink.com 1.10,2013-10-04 18:06:00,
2013-10-04 12:21:00,36.6,27.0,30.39,West,281,0.0,-999.0,67,-99.99,,,0.01,weatherlink.com 1.10,2013-10-04 18:21:00,
2013-10-04 12:36:00,37.5,28.0,30.40,WNW,288,10.0,-999.0,68,-99.99,,,0.02,weatherlink.com 1.10,2013-10-04 18:36:00,
2013-10-04 12:51:00,37.5,28.0,30.40,WNW,296,4.0,-999.0,68,-99.99,,,0.02,weatherlink.com 1.10,2013-10-04 18:51:00,
2013-10-04 13:06:00,37.9,27.0,30.41,North,355,8.0,-999.0,66,-99.99,,,0.02,weatherlink.com 1.10,2013-10-04 19:06:00,
2013-10-04 13:21:00,38.3,29.0,30.41,North,360,5.0,-999.0,68,-99.99,,,0.02,weatherlink.com 1.10,2013-10-04 19:21:00,
2013-10-04 13:36:00,39.0,28.0,30.40,North,5,7.0,-999.0,64,-99.99,,,0.02,weatherlink.com 1.10,2013-10-04 19:36:00,
2013-10-04 13:51:00,38.7,27.0,30.40,NNE,30,5.0,-999.0,64,-99.99,,,0.02,weatherlink.com 1.10,2013-10-04 19:51:00,
2013-10-04 14:06:00,39.2,27.0,30.40,NNW,338,8.0,-999.0,61,-99.99,,,0.02,weatherlink.com 1.10,2013-10-04 20:06:00,
2013-10-04 14:21:00,39.1,27.0,30.39,North,5,6.0,-999.0,61,-99.99,,,0.02,weatherlink.com 1.10,2013-10-04 20:21:00,
2013-10-04 14:36:00,39.9,27.0,30.40,NNW,340,8.0,-999.0,61,-99.99,,,0.02,weatherlink.com 1.10,2013-10-04 20:36:00,
2013-10-04 14:51:00,40.1,27.0,30.39,North,360,3.0,-999.0,59,-99.99,,,0.02,weatherlink.com 1.10,2013-10-04 20:51:00,
2013-10-04 15:06:00,40.0,27.0,30.40,NNW,343,10.0,-999.0,61,-99.99,,,0.02,weatherlink.com 1.10,2013-10-04 21:06:00,
2013-10-04 15:21:00,38.7,27.0,30.40,North,5,10.0,-999.0,63,-99.99,,,0.02,weatherlink.com 1.10,2013-10-04 21:21:00,
2013-10-04 15:36:00,38.6,27.0,30.41,NNW,335,12.0,-999.0,64,-99.99,,,0.02,weatherlink.com 1.10,2013-10-04 21:36:00,
2013-10-04 15:51:00,38.8,27.0,30.41,NNW,329,13.0,-999.0,64,-99.99,,,0.02,weatherlink.com 1.10,2013-10-04 21:51:00,
2013-10-04 16:06:00,39.2,28.0,30.41,NNW,334,3.0,-999.0,64,-99.99,,,0.02,weatherlink.com 1.10,2013-10-04 22:06:00,
2013-10-04 16:21:00,40.0,27.0,30.41,NW,309,3.0,-999.0,61,-99.99,,,0.02,weatherlink.com 1.10,2013-10-04 22:21:00,
2013-10-04 16:36:00,40.5,27.0,30.41,North,355,6.0,-999.0,60,-99.99,,,0.02,weatherlink.com 1.10,2013-10-04 22:36:00,
2013-10-04 16:51:00,40.9,27.0,30.41,NNW,347,3.0,-999.0,57,-99.99,,,0.02,weatherlink.com 1.10,2013-10-04 22:51:00,
2013-10-04 17:06:00,40.7,26.0,30.41,NE,38,5.0,-999.0,57,-99.99,,,0.02,weatherlink.com 1.10,2013-10-04 23:06:00,
2013-10-04 17:22:00,40.3,27.0,30.41,NNE,30,5.0,-999.0,60,-99.99,,,0.02,weatherlink.com 1.10,2013-10-04 23:22:00,
2013-10-04 17:37:00,40.2,26.0,30.41,NNE,30,4.0,-999.0,58,-99.99,,,0.02,weatherlink.com 1.10,2013-10-04 23:37:00,
2013-10-04 17:51:00,41.4,26.0,30.41,NNE,15,2.0,-999.0,54,-99.99,,,0.02,weatherlink.com 1.10,2013-10-04 23:51:00,
2013-10-04 18:07:00,41.7,27.0,30.41,North,5,2.0,-999.0,57,-99.99,,,0.02,weatherlink.com 1.10,2013-10-05 00:07:00,
2013-10-04 18:21:00,41.1,26.0,30.42,North,355,2.0,-999.0,56,-99.99,,,0.02,weatherlink.com 1.10,2013-10-05 00:21:00,
2013-10-04 18:38:00,40.1,27.0,30.43,North,5,4.0,-999.0,60,-99.99,,,0.02,weatherlink.com 1.10,2013-10-05 00:38:00,
2013-10-04 18:52:00,38.2,26.0,30.43,North,5,3.0,-999.0,61,-99.99,,,0.02,weatherlink.com 1.10,2013-10-05 00:52:00,
2013-10-04 19:06:00,36.8,26.0,30.44,North,5,1.0,-999.0,65,-99.99,,,0.02,weatherlink.com 1.10,2013-10-05 01:06:00,
2013-10-04 19:22:00,35.5,26.0,30.44,North,5,2.0,-999.0,68,-99.99,,,0.02,weatherlink.com 1.10,2013-10-05 01:22:00,
2013-10-04 19:37:00,34.1,25.0,30.44,North,5,1.0,-999.0,68,-99.99,,,0.02,weatherlink.com 1.10,2013-10-05 01:37:00,
2013-10-04 19:52:00,32.9,25.0,30.45,North,5,0.0,-999.0,72,-99.99,,,0.02,weatherlink.com 1.10,2013-10-05 01:52:00,
2013-10-04 20:08:00,32.1,24.0,30.45,North,5,0.0,-999.0,73,-99.99,,,0.02,weatherlink.com 1.10,2013-10-05 02:08:00,
2013-10-04 20:22:00,31.8,24.0,30.46,North,5,0.0,-999.0,73,-99.99,,,0.02,weatherlink.com 1.10,2013-10-05 02:22:00,
2013-10-04 20:38:00,30.8,24.0,30.45,North,5,0.0,-999.0,76,-99.99,,,0.02,weatherlink.com 1.10,2013-10-05 02:38:00,
2013-10-04 20:52:00,30.6,25.0,30.46,North,5,3.0,-999.0,78,-99.99,,,0.02,weatherlink.com 1.10,2013-10-05 02:52:00,
2013-10-04 21:07:00,30.4,25.0,30.46,North,5,0.0,-999.0,79,-99.99,,,0.02,weatherlink.com 1.10,2013-10-05 03:07:00,
2013-10-04 21:22:00,29.6,24.0,30.46,North,5,1.0,-999.0,78,-99.99,,,0.02,weatherlink.com 1.10,2013-10-05 03:22:00,
2013-10-04 21:37:00,28.2,23.0,30.46,North,5,2.0,-999.0,81,-99.99,,,0.02,weatherlink.com 1.10,2013-10-05 03:37:00,
2013-10-04 21:52:00,27.2,23.0,30.46,North,5,1.0,-999.0,83,-99.99,,,0.02,weatherlink.com 1.10,2013-10-05 03:52:00,
2013-10-04 22:07:00,27.3,23.0,30.46,North,5,1.0,-999.0,83,-99.99,,,0.02,weatherlink.com 1.10,2013-10-05 04:07:00,
2013-10-04 22:22:00,26.7,23.0,30.46,North,5,2.0,-999.0,84,-99.99,,,0.02,weatherlink.com 1.10,2013-10-05 04:22:00,
2013-10-04 22:37:00,26.6,23.0,30.46,North,5,1.0,-999.0,85,-99.99,,,0.02,weatherlink.com 1.10,2013-10-05 04:37:00,
2013-10-04 22:52:00,27.2,23.0,30.46,North,5,1.0,-999.0,85,-99.99,,,0.02,weatherlink.com 1.10,2013-10-05 04:52:00,
2013-10-04 23:07:00,27.0,23.0,30.47,North,5,0.0,-999.0,84,-99.99,,,0.02,weatherlink.com 1.10,2013-10-05 05:07:00,
2013-10-04 23:22:00,25.9,22.0,30.47,North,5,0.0,-999.0,84,-99.99,,,0.02,weatherlink.com 1.10,2013-10-05 05:22:00,
2013-10-04 23:37:00,25.4,22.0,30.48,North,5,0.0,-999.0,85,-99.99,,,0.02,weatherlink.com 1.10,2013-10-05 05:37:00,
2013-10-04 23:52:00,25.1,21.0,30.48,North,5,0.0,-999.0,85,-99.99,,,0.02,weatherlink.com 1.10,2013-10-05 05:52:00,